createdAt,value
2023-01-20T00:00:43.779Z,84.53
2023-01-20T00:03:47.987Z,84.48
2023-01-20T00:06:50.667Z,84.33
2023-01-20T00:09:53.222Z,84.93
2023-01-20T00:12:55.837Z,85.38
2023-01-20T00:15:59.808Z,84.61
2023-01-20T00:19:02.462Z,85.29
2023-01-20T00:22:04.988Z,85.13
2023-01-20T00:25:08.125Z,85.29
2023-01-20T00:28:10.708Z,85.55
2023-01-20T00:31:16.211Z,85.82
2023-01-20T00:34:18.886Z,85.25
2023-01-20T00:37:21.411Z,85.47
2023-01-20T00:40:23.995Z,85.34
2023-01-20T00:43:26.537Z,85.61
2023-01-20T00:46:30.493Z,85.41
2023-01-20T00:49:33.077Z,85.27
2023-01-20T00:52:35.674Z,85.12
2023-01-20T00:55:38.213Z,85.63
2023-01-20T00:58:40.780Z,85.67
2023-01-20T01:01:46.119Z,85.84
2023-01-20T01:04:50.633Z,86.21
2023-01-20T01:07:53.219Z,85.32
2023-01-20T01:10:56.533Z,85.03
2023-01-20T01:13:59.098Z,85.33
2023-01-20T01:17:02.987Z,85.15
2023-01-20T01:20:06.420Z,85.46
2023-01-20T01:23:08.953Z,85.08
2023-01-20T01:26:11.653Z,85.23
2023-01-20T01:29:14.188Z,85.67
2023-01-20T01:32:18.061Z,85.42
2023-01-20T01:35:20.590Z,85.90
2023-01-20T01:38:23.177Z,85.75
2023-01-20T01:41:25.788Z,85.73
2023-01-20T01:44:28.474Z,86.01
2023-01-20T01:47:32.348Z,86.41
2023-01-20T01:50:38.628Z,85.73
2023-01-20T01:53:42.985Z,85.94
2023-01-20T01:56:45.727Z,85.85
2023-01-20T01:59:48.260Z,86.06
2023-01-20T02:02:52.533Z,86.11
2023-01-20T02:05:55.114Z,86.72
2023-01-20T02:08:57.688Z,86.44
2023-01-20T02:12:02.931Z,86.29
2023-01-20T02:15:06.396Z,86.33
2023-01-20T02:18:17.970Z,86.27
2023-01-20T02:21:49.595Z,86.37
2023-01-20T02:25:27.117Z,86.23
2023-01-20T02:28:38.481Z,86.15
2023-01-20T02:32:07.117Z,86.95
2023-01-20T02:35:11.759Z,86.54
2023-01-20T02:38:17.263Z,86.52
2023-01-20T02:41:21.917Z,86.21
2023-01-20T02:44:27.628Z,87.05
2023-01-20T02:47:32.732Z,86.70
2023-01-20T02:50:37.758Z,86.16
2023-01-20T02:53:44.519Z,86.23
2023-01-20T02:56:47.069Z,87.19
2023-01-20T02:59:51.445Z,87.04
2023-01-20T03:02:55.498Z,87.00
2023-01-20T03:05:59.572Z,86.95
2023-01-20T03:09:03.239Z,87.10
2023-01-20T03:12:10.378Z,87.10
2023-01-20T03:15:13.150Z,86.91
2023-01-20T03:18:17.755Z,86.95
2023-01-20T03:21:20.363Z,87.01
2023-01-20T03:24:22.904Z,87.66
2023-01-20T03:27:25.439Z,87.16
2023-01-20T03:30:28.044Z,87.39
2023-01-20T03:33:32.025Z,87.70
2023-01-20T03:36:34.552Z,87.67
2023-01-20T03:39:39.705Z,87.96
2023-01-20T03:42:44.796Z,87.59
2023-01-20T03:45:52.953Z,88.07
2023-01-20T03:49:00.191Z,88.62
2023-01-20T03:52:04.211Z,88.41
2023-01-20T03:55:21.589Z,88.80
2023-01-20T03:58:25.823Z,88.34
2023-01-20T04:01:31.319Z,88.86
2023-01-20T04:04:37.478Z,88.41
2023-01-20T04:07:40.507Z,89.03
2023-01-20T04:10:43.840Z,88.86
2023-01-20T04:13:46.371Z,89.32
2023-01-20T04:16:52.738Z,89.54
2023-01-20T04:19:56.692Z,89.06
2023-01-20T04:22:59.259Z,89.51
2023-01-20T04:26:01.804Z,89.66
2023-01-20T04:29:10.432Z,89.62
2023-01-20T04:32:14.547Z,89.73
2023-01-20T04:35:19.922Z,90.27
2023-01-20T04:38:22.444Z,89.93
2023-01-20T04:41:25.033Z,90.23
2023-01-20T04:44:27.618Z,89.78
2023-01-20T04:47:30.964Z,90.09
2023-01-20T04:50:34.864Z,89.39
2023-01-20T04:53:37.433Z,90.35
2023-01-20T04:56:40.007Z,89.89
2023-01-20T04:59:42.804Z,90.16
2023-01-20T05:02:45.479Z,89.85
2023-01-20T05:05:54.536Z,90.02
2023-01-20T05:08:57.147Z,89.83
2023-01-20T05:11:59.676Z,89.47
2023-01-20T05:15:02.307Z,89.79
2023-01-20T05:18:04.902Z,89.32
2023-01-20T05:21:08.983Z,89.55
2023-01-20T05:24:11.593Z,89.39
2023-01-20T05:27:14.124Z,89.38
2023-01-20T05:30:17.043Z,89.58
2023-01-20T05:33:19.633Z,89.49
2023-01-20T05:36:23.532Z,89.10
2023-01-20T05:39:26.194Z,88.64
2023-01-20T05:42:28.804Z,89.36
2023-01-20T05:45:32.382Z,89.22
2023-01-20T05:48:34.918Z,89.65
2023-01-20T05:51:38.835Z,89.79
2023-01-20T05:54:41.384Z,89.89
2023-01-20T05:57:43.963Z,90.11
2023-01-20T06:00:46.543Z,90.37
2023-01-20T06:03:49.265Z,89.67
2023-01-20T06:06:53.271Z,90.13
2023-01-20T06:09:55.871Z,89.87
2023-01-20T06:12:58.443Z,90.79
2023-01-20T06:16:01.000Z,90.41
2023-01-20T06:19:03.548Z,90.09
2023-01-20T06:22:22.479Z,90.52
2023-01-20T06:25:25.062Z,90.81
2023-01-20T06:28:27.656Z,90.86
2023-01-20T06:31:30.199Z,90.93
2023-01-20T06:34:32.779Z,91.37
2023-01-20T06:37:36.723Z,91.82
2023-01-20T06:40:39.319Z,91.60
2023-01-20T06:43:42.154Z,92.01
2023-01-20T06:46:46.737Z,91.81
2023-01-20T06:49:50.643Z,91.90
2023-01-20T06:52:55.873Z,91.97
2023-01-20T06:55:58.725Z,92.39
2023-01-20T06:59:01.250Z,91.93
2023-01-20T07:02:03.916Z,91.57
2023-01-20T07:05:08.093Z,92.33
2023-01-20T07:08:12.504Z,92.00
2023-01-20T07:11:15.088Z,92.18
2023-01-20T07:14:17.627Z,92.06
2023-01-20T07:17:20.153Z,92.61
2023-01-20T07:20:22.739Z,92.46
2023-01-20T07:23:26.603Z,92.22
2023-01-20T07:26:29.178Z,92.13
2023-01-20T07:29:31.709Z,92.74
2023-01-20T07:32:34.276Z,92.69
2023-01-20T07:35:36.804Z,92.74
2023-01-20T07:38:40.819Z,93.33
2023-01-20T07:41:45.470Z,92.83
2023-01-20T07:44:48.040Z,93.14
2023-01-20T07:47:50.656Z,92.54
2023-01-20T07:50:57.749Z,93.24
2023-01-20T07:54:02.944Z,92.80
2023-01-20T07:57:05.537Z,93.17
2023-01-20T08:00:09.486Z,92.85
2023-01-20T08:03:12.089Z,92.77
2023-01-20T08:06:15.683Z,93.08
2023-01-20T08:09:19.658Z,92.70
2023-01-20T08:12:22.457Z,92.96
2023-01-20T08:15:25.099Z,92.97
2023-01-20T08:18:27.654Z,92.22
2023-01-20T08:21:31.552Z,92.37
2023-01-20T08:24:35.500Z,92.82
2023-01-20T08:27:38.089Z,92.06
2023-01-20T08:30:40.790Z,92.25
2023-01-20T08:33:43.538Z,92.43
2023-01-20T08:36:46.228Z,92.17
2023-01-20T08:39:50.195Z,91.72
2023-01-20T08:42:52.734Z,92.38
2023-01-20T08:46:01.834Z,91.91
2023-01-20T08:49:07.032Z,92.39
2023-01-20T08:52:12.061Z,92.54
2023-01-20T08:55:16.666Z,91.68
2023-01-20T08:58:19.327Z,92.10
2023-01-20T09:01:23.294Z,91.64
2023-01-20T09:04:25.940Z,91.78
2023-01-20T09:07:28.498Z,91.82
2023-01-20T09:10:34.491Z,92.37
2023-01-20T09:13:37.156Z,92.51
2023-01-20T09:16:39.725Z,92.60
2023-01-20T09:19:42.342Z,92.61
2023-01-20T09:22:44.999Z,92.38
2023-01-20T09:25:49.269Z,92.41
2023-01-20T09:28:51.810Z,92.40
2023-01-20T09:31:58.019Z,92.45
2023-01-20T09:35:00.650Z,92.83
2023-01-20T09:38:20.980Z,92.86
2023-01-20T09:41:46.023Z,92.29
2023-01-20T09:44:49.884Z,92.77
2023-01-20T09:47:52.477Z,92.61
2023-01-20T09:51:14.244Z,93.01
2023-01-20T09:54:18.957Z,92.54
2023-01-20T09:57:22.871Z,92.46
2023-01-20T10:00:25.843Z,92.97
2023-01-20T10:03:36.851Z,92.45
2023-01-20T10:06:41.461Z,92.66
2023-01-20T10:09:46.699Z,92.70
2023-01-20T10:12:52.828Z,92.53
2023-01-20T10:15:56.145Z,93.24
2023-01-20T10:19:00.992Z,92.73
2023-01-20T10:22:07.955Z,92.84
2023-01-20T10:25:13.311Z,92.66
2023-01-20T10:28:19.924Z,93.04
2023-01-20T10:31:24.899Z,93.74
2023-01-20T10:34:29.291Z,92.96
2023-01-20T10:37:32.159Z,93.08
2023-01-20T10:40:37.658Z,92.78
2023-01-20T10:43:41.569Z,93.38
2023-01-20T10:46:53.230Z,93.53
2023-01-20T10:50:05.999Z,93.79
2023-01-20T10:53:25.115Z,93.67
2023-01-20T10:56:39.416Z,93.75
2023-01-20T10:59:45.147Z,94.02
2023-01-20T11:02:49.201Z,93.46
2023-01-20T11:05:52.452Z,93.59
2023-01-20T11:08:55.059Z,93.56
2023-01-20T11:11:57.876Z,93.71
2023-01-20T11:15:01.828Z,93.25
2023-01-20T11:18:28.619Z,93.41
2023-01-20T11:21:32.253Z,93.28
2023-01-20T11:24:39.074Z,93.35
2023-01-20T11:27:42.598Z,93.65
2023-01-20T11:30:50.439Z,93.43
2023-01-20T11:33:55.978Z,93.65
2023-01-20T11:37:17.363Z,93.93
2023-01-20T11:40:22.027Z,93.70
2023-01-20T11:43:31.877Z,93.69
2023-01-20T11:46:37.218Z,93.33
2023-01-20T11:49:39.762Z,93.61
2023-01-20T11:52:43.541Z,93.44
2023-01-20T11:55:48.065Z,93.20
2023-01-20T11:58:54.475Z,92.43
2023-01-20T12:02:01.778Z,92.47
2023-01-20T12:05:07.976Z,92.35
2023-01-20T12:08:11.204Z,92.31
2023-01-20T12:11:13.784Z,92.20
2023-01-20T12:14:20.921Z,92.54
2023-01-20T12:17:34.759Z,92.58
2023-01-20T12:20:54.090Z,92.57
2023-01-20T12:24:02.169Z,92.45
2023-01-20T12:27:05.641Z,92.71
2023-01-20T12:30:15.593Z,92.37
2023-01-20T12:33:21.735Z,93.02
2023-01-20T12:36:46.398Z,92.63
2023-01-20T12:39:58.634Z,92.65
2023-01-20T12:43:28.951Z,92.47
2023-01-20T12:46:35.126Z,92.71
2023-01-20T12:49:46.217Z,92.56
2023-01-20T12:52:56.244Z,92.40
2023-01-20T12:56:03.793Z,92.32
2023-01-20T12:59:09.886Z,91.93
2023-01-20T13:02:27.251Z,92.07
2023-01-20T13:05:38.750Z,91.65
2023-01-20T13:08:42.951Z,91.88
2023-01-20T13:11:51.164Z,92.34
2023-01-20T13:14:55.298Z,92.13
2023-01-20T13:18:07.967Z,91.71
2023-01-20T13:21:18.729Z,92.12
2023-01-20T13:24:29.146Z,91.79
2023-01-20T13:27:34.264Z,91.48
2023-01-20T13:30:42.894Z,91.66
2023-01-20T13:33:45.585Z,91.99
2023-01-20T13:37:21.236Z,91.71
2023-01-20T13:40:55.819Z,91.76
2023-01-20T13:43:58.387Z,92.02
2023-01-20T13:47:00.935Z,92.13
2023-01-20T13:50:21.524Z,91.69
2023-01-20T13:53:29.049Z,91.80
2023-01-20T13:56:33.142Z,91.99
2023-01-20T13:59:37.320Z,92.17
2023-01-20T14:02:39.926Z,92.16
2023-01-20T14:05:42.498Z,92.46
2023-01-20T14:08:46.040Z,91.96
2023-01-20T14:11:53.700Z,92.05
2023-01-20T14:14:56.223Z,92.39
2023-01-20T14:17:59.132Z,91.68
2023-01-20T14:21:06.444Z,91.73
2023-01-20T14:24:26.901Z,91.71
2023-01-20T14:27:32.139Z,91.72
2023-01-20T14:30:34.883Z,91.61
2023-01-20T14:33:44.583Z,91.60
2023-01-20T14:36:47.170Z,91.99
2023-01-20T14:39:49.728Z,91.88
2023-01-20T14:43:00.770Z,92.17
2023-01-20T14:46:03.508Z,92.04
2023-01-20T14:49:06.132Z,92.22
2023-01-20T14:52:09.107Z,92.28
2023-01-20T14:55:27.494Z,92.42
2023-01-20T14:58:31.495Z,92.13
2023-01-20T15:01:34.090Z,91.86
2023-01-20T15:04:37.156Z,91.75
2023-01-20T15:07:39.684Z,91.51
2023-01-20T15:10:42.346Z,91.75
2023-01-20T15:14:09.374Z,91.47
2023-01-20T15:17:11.947Z,92.09
2023-01-20T15:20:28.026Z,91.98
2023-01-20T15:23:32.243Z,91.69
2023-01-20T15:26:34.828Z,91.31
2023-01-20T15:29:38.740Z,91.37
2023-01-20T15:32:41.349Z,91.65
2023-01-20T15:35:43.917Z,91.41
2023-01-20T15:38:46.554Z,91.86
2023-01-20T15:41:49.658Z,91.90
2023-01-20T15:44:53.580Z,92.36
2023-01-20T15:47:57.721Z,91.59
2023-01-20T15:51:00.322Z,91.91
2023-01-20T15:54:02.975Z,91.99
2023-01-20T15:57:10.989Z,91.80
2023-01-20T16:00:19.150Z,91.39
2023-01-20T16:03:21.678Z,91.49
2023-01-20T16:06:27.333Z,91.46
2023-01-20T16:09:33.748Z,92.07
2023-01-20T16:12:36.344Z,91.98
2023-01-20T16:15:41.888Z,92.25
2023-01-20T16:18:44.667Z,92.26
2023-01-20T16:21:47.235Z,92.27
2023-01-20T16:24:51.162Z,91.97
2023-01-20T16:27:53.750Z,92.68
2023-01-20T16:30:57.900Z,91.97
2023-01-20T16:34:00.547Z,92.68
2023-01-20T16:37:03.096Z,92.46
2023-01-20T16:40:06.607Z,92.85
2023-01-20T16:43:11.881Z,92.77
2023-01-20T16:46:16.880Z,93.12
2023-01-20T16:49:22.692Z,93.45
2023-01-20T16:52:25.358Z,92.93
2023-01-20T16:55:27.932Z,93.18
2023-01-20T16:58:30.460Z,93.16
2023-01-20T17:01:34.328Z,93.80
2023-01-20T17:04:37.657Z,93.40
2023-01-20T17:07:40.183Z,92.99
2023-01-20T17:10:42.767Z,93.68
2023-01-20T17:13:45.363Z,93.64
2023-01-20T17:16:49.359Z,93.90
2023-01-20T17:19:52.028Z,93.65
2023-01-20T17:22:55.349Z,93.39
2023-01-20T17:25:57.920Z,93.54
2023-01-20T17:29:02.116Z,93.72
2023-01-20T17:32:06.178Z,92.99
2023-01-20T17:35:09.162Z,93.57
2023-01-20T17:38:11.728Z,93.28
2023-01-20T17:41:14.595Z,93.04
2023-01-20T17:44:17.345Z,93.43
2023-01-20T17:47:21.301Z,93.06
2023-01-20T17:50:23.833Z,93.34
2023-01-20T17:53:27.060Z,93.52
2023-01-20T17:56:29.592Z,93.36
2023-01-20T17:59:32.111Z,92.73
2023-01-20T18:02:36.068Z,93.32
2023-01-20T18:05:38.708Z,92.58
2023-01-20T18:08:41.341Z,92.76
2023-01-20T18:11:44.541Z,92.57
2023-01-20T18:14:47.151Z,92.11
2023-01-20T18:17:51.019Z,91.96
2023-01-20T18:20:54.199Z,91.54
2023-01-20T18:23:56.975Z,91.82
2023-01-20T18:26:59.551Z,91.39
2023-01-20T18:30:02.162Z,90.38
2023-01-20T18:33:06.137Z,90.96
2023-01-20T18:36:09.425Z,90.56
2023-01-20T18:39:14.674Z,89.67
2023-01-20T18:42:17.199Z,90.43
2023-01-20T18:45:19.775Z,89.89
2023-01-20T18:48:25.291Z,89.54
2023-01-20T18:51:28.714Z,89.18
2023-01-20T18:54:32.845Z,89.17
2023-01-20T18:57:35.449Z,89.25
2023-01-20T19:00:38.312Z,89.48
2023-01-20T19:03:42.850Z,89.39
2023-01-20T19:06:45.684Z,89.07
2023-01-20T19:09:48.392Z,89.40
2023-01-20T19:12:52.176Z,89.06
2023-01-20T19:15:54.797Z,88.79
2023-01-20T19:18:59.630Z,88.84
2023-01-20T19:22:02.154Z,88.48
2023-01-20T19:25:05.060Z,88.71
2023-01-20T19:28:09.062Z,88.22
2023-01-20T19:31:12.514Z,89.28
2023-01-20T19:34:16.468Z,88.41
2023-01-20T19:37:19.077Z,88.79
2023-01-20T19:40:21.616Z,89.12
2023-01-20T19:43:24.135Z,88.08
2023-01-20T19:46:27.675Z,88.86
2023-01-20T19:49:31.680Z,88.17
2023-01-20T19:52:34.239Z,88.79
2023-01-20T19:55:36.794Z,88.42
2023-01-20T19:58:39.565Z,88.14
2023-01-20T20:01:42.262Z,88.08
2023-01-20T20:04:46.194Z,88.63
2023-01-20T20:07:49.784Z,88.24
2023-01-20T20:10:52.371Z,88.02
2023-01-20T20:13:56.453Z,88.01
2023-01-20T20:16:59.167Z,88.49
2023-01-20T20:20:03.155Z,88.46
2023-01-20T20:23:05.685Z,88.04
2023-01-20T20:26:08.244Z,87.91
2023-01-20T20:29:11.593Z,88.36
2023-01-20T20:32:14.221Z,87.99
2023-01-20T20:35:18.245Z,88.06
2023-01-20T20:38:20.834Z,87.93
2023-01-20T20:41:25.804Z,87.70
2023-01-20T20:44:28.342Z,88.16
2023-01-20T20:47:32.739Z,87.81
2023-01-20T20:50:36.610Z,87.73
2023-01-20T20:53:39.193Z,87.83
2023-01-20T20:56:41.718Z,88.41
2023-01-20T20:59:58.288Z,88.44
2023-01-20T21:03:01.623Z,88.01
2023-01-20T21:06:06.693Z,88.51
2023-01-20T21:09:09.272Z,88.48
2023-01-20T21:12:11.808Z,88.45
2023-01-20T21:15:14.358Z,88.37
2023-01-20T21:18:16.875Z,88.41
2023-01-20T21:21:20.807Z,88.10
2023-01-20T21:24:28.948Z,87.88
2023-01-20T21:27:31.879Z,87.75
2023-01-20T21:30:34.493Z,87.92
2023-01-20T21:33:38.263Z,87.75
2023-01-20T21:36:42.288Z,87.56
2023-01-20T21:39:44.889Z,87.76
2023-01-20T21:42:47.469Z,87.63
2023-01-20T21:45:53.119Z,87.57
2023-01-20T21:49:13.570Z,87.30
2023-01-20T21:52:35.726Z,86.63
2023-01-20T21:55:38.286Z,86.56
2023-01-20T21:58:40.883Z,86.70
2023-01-20T22:01:43.497Z,86.52
2023-01-20T22:04:47.063Z,86.71
2023-01-20T22:07:50.990Z,87.11
2023-01-20T22:10:56.384Z,86.44
2023-01-20T22:13:58.994Z,86.76
2023-01-20T22:17:01.513Z,87.16
2023-01-20T22:20:06.227Z,86.84
2023-01-20T22:23:11.464Z,86.31
2023-01-20T22:26:14.068Z,86.30
2023-01-20T22:29:16.881Z,86.24
2023-01-20T22:32:19.397Z,86.64
2023-01-20T22:35:22.016Z,86.36
2023-01-20T22:38:25.971Z,86.22
2023-01-20T22:41:28.600Z,86.54
2023-01-20T22:44:31.174Z,86.64
2023-01-20T22:47:33.714Z,86.21
2023-01-20T22:50:36.286Z,86.74
2023-01-20T22:53:40.536Z,86.19
2023-01-20T22:56:43.118Z,86.03
2023-01-20T22:59:45.634Z,86.60
2023-01-20T23:02:48.206Z,86.70
2023-01-20T23:05:53.747Z,86.15
2023-01-20T23:08:57.642Z,86.35
2023-01-20T23:12:00.207Z,86.09
2023-01-20T23:15:02.912Z,86.00
2023-01-20T23:18:05.477Z,86.47
2023-01-20T23:21:08.071Z,86.29
2023-01-20T23:24:11.965Z,86.21
2023-01-20T23:27:14.511Z,86.23
2023-01-20T23:30:18.267Z,86.40
2023-01-20T23:33:21.027Z,86.47
2023-01-20T23:36:24.570Z,86.10
2023-01-20T23:39:28.474Z,86.15
2023-01-20T23:42:31.014Z,86.01
2023-01-20T23:45:33.734Z,86.10
2023-01-20T23:48:36.323Z,86.02
2023-01-20T23:51:38.907Z,86.17
2023-01-20T23:54:42.805Z,86.13
2023-01-20T23:57:45.320Z,86.18
